Grand Forks, ND (58201)

1:07 PM CST on January 30, 2015 (GMT -0600)
CWOP Grand Forks | Change Station
CLOSE
Current Station
Personal Weather Station
Location: Grand Forks, ND
Elevation: 840 ft
Nearby Weather Stations

Elev 840 ft 47.89 °N, 97.08 °W | Updated 2 minutes ago

Overcast
Overcast
24.4 °F
Feels Like 19 °F
N
4.5
Wind Variable Wind from South
Gusts 9.2 mph

Today
High -- | Low -- °F
--% Chance of Precip.
Yesterday
High -- | Low -- °F
Precip. -- in
7:58 AM 5:25 PM
Waxing Gibbous, 84% visible
Pressure 30.24 in
Visibility 10.0 miles
Clouds Few 1000 ft
Scattered Clouds 7500 ft
Mostly Cloudy 25000 ft
Windchill 19 °F
Dew Point 18 °F
Humidity 75%
Rainfall 0.00 in
Snow Depth Not available.
UV 1 out of 12
Pollen .10 out of 12
Air Quality Not available.
Flu Activity Not available.
METAR KGFK 301853Z 19017G21KT 10SM FEW010 SCT075 BKN250 M04/M09 A3018 RMK AO2 PK WND 19028/1757 SLP238 T10391089

More Conditions Fewer Conditions

Pressure 30.24 in
Visibility 10.0 miles
Clouds Few 1000 ft
Scattered Clouds 7500 ft
Mostly Cloudy 25000 ft
Windchill 19 °F
Dew Point 18 °F
Humidity 75%
Rainfall 0.00 in
Snow Depth Not available.
UV 1 out of 12
Pollen .10 out of 12
Air Quality Not available.
Flu Activity Not available.
METAR KGFK 301853Z 19017G21KT 10SM FEW010 SCT075 BKN250 M04/M09 A3018 RMK AO2 PK WND 19028/1757 SLP238 T10391089

More Conditions Fewer Conditions

10-Day Weather Forecast

Almanac

Astronomy

Jan. 30, 2015 Rise Set
Actual Time
Civil Twilight
Nautical Twilight
Astronomical Twilight
Moon
Length of Visible Light
Length of Day
Tomorrow will be .
, % of the Moon is Illuminated

Today's Extremes

State Highs State Lows

Community

WunderPhotos

Upload Photos

1,791,866 photos uploaded!

WunderBlogs® & News

Nearby

Air Quality

  Air Quality AQ Index Pollutant
Not available.

Snow Depth

Station Depth Elevation

Earthquake Activity

City Distance Mag. Time & Date
Minimum magnitude displayed is 2.5.

Coastal Water Temperatures

Place Temperature

Nearby Weather Stations